Time;durP1;ratioP1;P1;durP2;ratioP2;P2;SDS_P1;SDS_P2;PMS_P1;PMS_P2;Temp;Humidity;BMP_temperature;BMP_pressure;BME280_temperature;BME280_humidity;BME280_pressure;Samples;Min_cycle;Max_cycle;Signal;HPM_P1;HPM_P2
2021/11/08 00:01:11;;;;;;;9.25;6.80;;;5.20;99.90;;;;;;5059522;28;20221;-72
2021/11/08 00:03:58;;;;;;;7.00;6.30;;;5.30;99.90;;;;;;5070930;28;20223;-72
2021/11/08 00:06:44;;;;;;;11.57;7.88;;;5.30;99.90;;;;;;5068642;28;20201;-72
2021/11/08 00:09:30;;;;;;;15.93;8.02;;;5.40;99.90;;;;;;5066649;28;20281;-72
2021/11/08 00:12:17;;;;;;;10.18;8.45;;;5.40;99.90;;;;;;5070124;28;20218;-72
2021/11/08 00:15:06;;;;;;;14.13;7.65;;;5.40;99.90;;;;;;5069559;28;20564;-72
2021/11/08 00:17:59;;;;;;;8.80;7.38;;;5.40;99.90;;;;;;5065050;28;20594;-71
2021/11/08 00:20:47;;;;;;;10.43;7.38;;;5.40;99.90;;;;;;5069987;28;20271;-72
2021/11/08 00:23:33;;;;;;;8.90;7.32;;;5.40;99.90;;;;;;5069964;28;20282;-72
2021/11/08 00:26:19;;;;;;;12.32;7.43;;;5.50;99.90;;;;;;5066870;28;20307;-71
2021/11/08 00:29:04;;;;;;;10.45;7.40;;;5.50;99.90;;;;;;5059059;28;20205;-72
2021/11/08 00:31:50;;;;;;;9.95;6.90;;;5.50;99.90;;;;;;5067194;28;20413;-72
2021/11/08 00:34:36;;;;;;;12.77;8.18;;;5.60;99.90;;;;;;5069117;28;20692;-72
2021/11/08 00:37:23;;;;;;;9.27;7.13;;;5.70;99.90;;;;;;5067496;28;20656;-72
2021/11/08 00:40:10;;;;;;;9.10;6.97;;;5.60;99.90;;;;;;5064835;28;20220;-72
2021/11/08 00:42:55;;;;;;;9.13;6.65;;;5.60;99.90;;;;;;5066658;28;20197;-72
2021/11/08 00:45:43;;;;;;;12.63;8.00;;;5.50;99.90;;;;;;5068983;28;20203;-72
2021/11/08 00:48:32;;;;;;;9.85;6.32;;;5.40;99.90;;;;;;5065274;28;20251;-72
2021/11/08 00:51:18;;;;;;;11.20;6.97;;;5.30;99.90;;;;;;5069659;28;20219;-72
2021/11/08 00:54:09;;;;;;;11.95;5.45;;;5.30;99.90;;;;;;5070865;28;20212;-71
2021/11/08 00:56:58;;;;;;;9.75;6.38;;;5.40;99.90;;;;;;5070212;28;20547;-72
2021/11/08 00:59:44;;;;;;;18.33;7.20;;;5.30;99.90;;;;;;5064761;28;20328;-72
2021/11/08 01:02:30;;;;;;;7.18;5.80;;;5.30;99.90;;;;;;5051028;28;20663;-72
2021/11/08 01:05:16;;;;;;;7.20;6.20;;;5.20;99.90;;;;;;5063348;28;20281;-72
2021/11/08 01:08:04;;;;;;;14.05;6.95;;;5.10;99.90;;;;;;5066282;28;20249;-72
2021/11/08 01:10:51;;;;;;;9.13;6.90;;;5.10;99.90;;;;;;5064050;28;20231;-72
2021/11/08 01:13:39;;;;;;;9.43;7.32;;;5.00;99.90;;;;;;5062755;28;20199;-72
2021/11/08 01:16:26;;;;;;;12.02;7.30;;;4.90;99.90;;;;;;5063545;28;20319;-72
2021/11/08 01:19:12;;;;;;;9.23;6.68;;;4.80;99.90;;;;;;5057121;28;20228;-72
2021/11/08 01:22:05;;;;;;;15.73;6.78;;;4.90;99.90;;;;;;5066977;28;20224;-72
2021/11/08 01:24:54;;;;;;;13.65;6.68;;;5.00;99.90;;;;;;5068748;28;20216;-72
2021/11/08 01:27:43;;;;;;;8.45;6.32;;;5.00;99.90;;;;;;5069094;28;20205;-72
2021/11/08 01:30:28;;;;;;;13.15;7.55;;;5.10;99.90;;;;;;5065922;28;20266;-72
2021/11/08 01:33:17;;;;;;;8.25;7.32;;;5.10;99.90;;;;;;5058885;28;20207;-72
2021/11/08 01:36:17;;;;;;;10.68;6.75;;;5.00;99.90;;;;;;5066968;28;20212;-72
2021/11/08 01:39:12;;;;;;;12.45;7.40;;;4.90;99.90;;;;;;5066404;28;20250;-72
2021/11/08 01:41:58;;;;;;;11.88;8.20;;;4.90;99.90;;;;;;5060460;28;20277;-72
2021/11/08 01:44:46;;;;;;;11.65;7.80;;;5.00;99.90;;;;;;5065537;28;20763;-71
2021/11/08 01:47:32;;;;;;;7.35;5.95;;;5.10;99.90;;;;;;5067300;28;20670;-72
2021/11/08 01:50:18;;;;;;;12.27;7.40;;;5.10;99.90;;;;;;5062556;28;20224;-72
2021/11/08 01:53:04;;;;;;;11.00;6.32;;;5.10;99.90;;;;;;5066851;28;20294;-72
2021/11/08 01:55:50;;;;;;;8.85;6.60;;;5.10;99.90;;;;;;5065741;28;20677;-72
2021/11/08 01:58:36;;;;;;;11.85;6.72;;;5.20;99.90;;;;;;5063504;28;20286;-72
2021/11/08 02:01:24;;;;;;;8.82;6.40;;;5.20;99.90;;;;;;5069533;28;20220;-71
2021/11/08 02:04:10;;;;;;;12.90;7.07;;;5.10;99.90;;;;;;5059165;28;20232;-71
2021/11/08 02:06:56;;;;;;;10.05;6.72;;;5.00;99.90;;;;;;5066942;28;20207;-72
2021/11/08 02:09:42;;;;;;;11.25;8.10;;;4.80;99.90;;;;;;5068060;28;20254;-72
2021/11/08 02:12:27;;;;;;;8.80;6.55;;;4.80;99.90;;;;;;5067791;28;20701;-72
2021/11/08 02:15:15;;;;;;;10.80;7.63;;;4.80;99.90;;;;;;5063836;28;20204;-72
2021/11/08 02:18:02;;;;;;;9.52;6.95;;;4.80;99.90;;;;;;5061302;28;20327;-72
2021/11/08 02:20:51;;;;;;;14.38;8.70;;;4.70;99.90;;;;;;5062399;28;20216;-72
2021/11/08 02:23:37;;;;;;;10.70;8.15;;;4.80;99.90;;;;;;5066991;28;20204;-72
2021/11/08 02:26:22;;;;;;;16.85;8.35;;;4.80;99.90;;;;;;5065816;28;20622;-72
2021/11/08 02:29:09;;;;;;;17.88;8.38;;;4.90;99.90;;;;;;5068835;28;20597;-72
2021/11/08 02:31:59;;;;;;;15.52;8.23;;;4.90;99.90;;;;;;5067001;28;20384;-72
2021/11/08 02:34:45;;;;;;;22.75;8.05;;;5.00;99.90;;;;;;5068030;28;20260;-72
2021/11/08 02:37:33;;;;;;;12.90;8.18;;;4.90;99.90;;;;;;5065558;28;20578;-72
2021/11/08 02:40:22;;;;;;;16.52;9.43;;;4.90;99.90;;;;;;5065367;28;20216;-71
2021/11/08 02:43:08;;;;;;;13.50;8.23;;;5.00;99.90;;;;;;5066743;28;20208;-71
2021/11/08 02:45:58;;;;;;;18.52;9.55;;;5.00;99.90;;;;;;5070706;28;20295;-72
2021/11/08 02:48:46;;;;;;;15.65;8.20;;;5.20;99.90;;;;;;5070213;28;20200;-72
2021/11/08 02:51:31;;;;;;;23.40;9.90;;;5.20;99.90;;;;;;5068318;28;20266;-72
2021/11/08 02:54:26;;;;;;;17.55;9.25;;;5.30;99.90;;;;;;5063369;28;20220;-72
2021/11/08 02:57:12;;;;;;;16.10;8.75;;;5.20;99.90;;;;;;5070353;28;20203;-71
2021/11/08 02:59:59;;;;;;;18.60;8.88;;;5.30;99.90;;;;;;5070206;28;20200;-72
2021/11/08 03:02:44;;;;;;;20.65;10.18;;;5.40;99.90;;;;;;5072102;28;20207;-72
2021/11/08 03:05:33;;;;;;;15.23;9.73;;;5.40;99.90;;;;;;5067135;28;20231;-72
2021/11/08 03:08:19;;;;;;;14.70;9.27;;;5.40;99.90;;;;;;5068726;28;20203;-72
2021/11/08 03:11:06;;;;;;;13.63;8.75;;;5.40;99.90;;;;;;5069210;28;20251;-72
2021/11/08 03:13:58;;;;;;;12.27;8.43;;;5.40;99.90;;;;;;5062495;28;20299;-72
2021/11/08 03:16:46;;;;;;;20.52;9.40;;;5.50;99.90;;;;;;5070421;28;20208;-72
2021/11/08 03:19:33;;;;;;;12.02;8.23;;;5.30;99.90;;;;;;5067074;28;20566;-72
2021/11/08 03:22:20;;;;;;;23.42;9.23;;;5.30;99.90;;;;;;5069706;28;20203;-72
2021/11/08 03:25:12;;;;;;;15.23;10.02;;;5.20;99.90;;;;;;5070517;28;20736;-72
2021/11/08 03:28:00;;;;;;;18.45;11.00;;;5.20;99.90;;;;;;5068697;28;20204;-72
2021/11/08 03:30:48;;;;;;;17.35;10.50;;;5.20;99.90;;;;;;5068298;28;20266;-72
2021/11/08 03:33:34;;;;;;;13.13;9.88;;;5.20;99.90;;;;;;5067362;28;20239;-72
2021/11/08 03:36:20;;;;;;;14.27;10.20;;;5.20;99.90;;;;;;5063929;28;20731;-72
2021/11/08 03:39:06;;;;;;;14.23;9.82;;;5.10;99.90;;;;;;5069320;28;20204;-72
2021/11/08 03:41:52;;;;;;;13.65;9.70;;;5.20;99.90;;;;;;5067195;28;20318;-72
2021/11/08 03:44:39;;;;;;;15.45;9.75;;;5.00;99.90;;;;;;5072032;28;20278;-72
2021/11/08 03:47:25;;;;;;;19.45;10.13;;;5.10;99.90;;;;;;5066031;28;20708;-72
2021/11/08 03:50:12;;;;;;;13.55;8.85;;;5.20;99.90;;;;;;5060733;28;20244;-72
2021/11/08 03:52:57;;;;;;;11.68;9.30;;;5.20;99.90;;;;;;5070381;28;20208;-71
2021/11/08 03:55:44;;;;;;;14.35;10.73;;;5.30;99.90;;;;;;5068040;28;20330;-72
2021/11/08 03:58:30;;;;;;;16.67;10.60;;;5.20;99.90;;;;;;5069686;28;20579;-72
2021/11/08 04:01:17;;;;;;;14.30;9.93;;;5.10;99.90;;;;;;5068070;28;20262;-72
2021/11/08 04:04:03;;;;;;;15.05;10.13;;;5.00;99.90;;;;;;5066668;28;20563;-72
2021/11/08 04:06:49;;;;;;;12.85;9.60;;;5.00;99.90;;;;;;5068154;28;20689;-72
2021/11/08 04:09:35;;;;;;;18.88;8.98;;;4.90;99.90;;;;;;5070570;28;20269;-72
2021/11/08 04:12:22;;;;;;;14.30;8.65;;;4.80;99.90;;;;;;5066383;28;20203;-72
2021/11/08 04:15:10;;;;;;;18.83;10.25;;;4.80;99.90;;;;;;5068802;28;20597;-72
2021/11/08 04:17:58;;;;;;;36.92;10.15;;;4.80;99.90;;;;;;5068362;28;20196;-72
2021/11/08 04:20:46;;;;;;;22.42;10.45;;;4.70;99.90;;;;;;5067060;28;20235;-72
2021/11/08 04:23:32;;;;;;;26.92;12.60;;;4.60;99.90;;;;;;5066055;28;20247;-72
2021/11/08 04:26:19;;;;;;;19.40;12.45;;;4.70;99.90;;;;;;5065785;28;20224;-71
2021/11/08 04:29:06;;;;;;;107.22;12.90;;;4.80;99.90;;;;;;5067853;28;20700;-72
2021/11/08 04:31:52;;;;;;;77.53;12.45;;;4.90;99.90;;;;;;5070024;28;20220;-72
2021/11/08 04:34:44;;;;;;;53.78;10.70;;;5.00;99.90;;;;;;5060111;28;20681;-72
2021/11/08 04:37:49;;;;;;;19.40;11.15;;;5.00;99.90;;;;;;5065293;28;20779;-72
2021/11/08 04:40:40;;;;;;;62.47;10.77;;;5.00;99.90;;;;;;5067916;28;20220;-72
2021/11/08 04:43:38;;;;;;;76.53;9.20;;;5.10;99.90;;;;;;5066990;28;20204;-72
2021/11/08 04:49:44;;;;;;;12.60;7.70;;;5.00;99.90;;;;;;5068044;28;20192;-72
2021/11/08 04:52:43;;;;;;;75.32;9.15;;;5.00;99.90;;;;;;5071047;28;20204;-72
2021/11/08 04:55:42;;;;;;;84.43;9.70;;;5.00;99.90;;;;;;5069725;28;20212;-72
2021/11/08 05:23:06;;;;;;;10.02;7.13;;;4.70;99.90;;;;;;5062510;28;20688;-71
2021/11/08 05:31:59;;;;;;;16.83;7.40;;;4.90;99.90;;;;;;5064670;28;20435;-72
2021/11/08 05:34:45;;;;;;;13.98;7.38;;;5.00;99.90;;;;;;5064527;28;20260;-72
2021/11/08 05:37:31;;;;;;;30.80;7.70;;;5.00;99.90;;;;;;5067474;28;20223;-70
2021/11/08 05:40:22;;;;;;;12.15;7.55;;;5.10;99.90;;;;;;5065967;28;20227;-71
2021/11/08 05:43:08;;;;;;;10.73;8.50;;;5.00;99.90;;;;;;5067868;28;20208;-72
2021/11/08 05:45:54;;;;;;;13.95;8.75;;;5.00;99.90;;;;;;5067577;28;20215;-72
2021/11/08 05:48:39;;;;;;;12.52;7.68;;;5.00;99.90;;;;;;5070338;28;20219;-70
2021/11/08 05:51:26;;;;;;;26.50;8.25;;;5.00;99.90;;;;;;5067255;28;20239;-72
2021/11/08 05:54:12;;;;;;;20.88;8.25;;;4.90;99.90;;;;;;5067931;28;20223;-71
2021/11/08 05:57:18;;;;;;;16.15;7.60;;;4.90;99.90;;;;;;5068651;28;20200;-72
2021/11/08 06:49:31;;;;;;;7.20;6.25;;;5.30;99.90;;;;;;5059274;28;20231;-71
2021/11/08 06:52:18;;;;;;;6.97;6.28;;;5.40;99.90;;;;;;5072181;28;20196;-72
2021/11/08 06:55:06;;;;;;;12.25;7.22;;;5.30;99.90;;;;;;5068503;28;20715;-72
2021/11/08 06:58:00;;;;;;;11.95;7.85;;;5.30;99.90;;;;;;5071353;28;20760;-72
2021/11/08 07:00:47;;;;;;;13.85;9.13;;;5.40;99.90;;;;;;5066963;28;20294;-71
2021/11/08 07:03:33;;;;;;;11.73;9.65;;;5.40;99.90;;;;;;5061872;28;20209;-71
2021/11/08 07:06:19;;;;;;;15.10;10.30;;;5.40;99.90;;;;;;5070139;28;20712;-71
2021/11/08 07:09:05;;;;;;;15.55;10.85;;;5.40;99.90;;;;;;5070473;28;20263;-73
2021/11/08 07:11:51;;;;;;;16.55;9.75;;;5.50;99.90;;;;;;5069273;28;20236;-75
2021/11/08 07:14:37;;;;;;;16.13;10.35;;;5.60;99.90;;;;;;5067260;28;20205;-72
2021/11/08 07:17:24;;;;;;;14.77;8.80;;;5.50;99.90;;;;;;5069158;28;20220;-73
2021/11/08 07:20:11;;;;;;;10.60;8.63;;;5.40;99.90;;;;;;5069096;28;20351;-74
2021/11/08 07:22:58;;;;;;;10.35;8.82;;;5.20;99.90;;;;;;5070374;28;20666;-73
2021/11/08 07:25:44;;;;;;;13.40;9.02;;;5.10;99.90;;;;;;5069676;28;20232;-71
2021/11/08 07:28:30;;;;;;;13.27;9.10;;;5.20;99.90;;;;;;5066495;28;20294;-72
2021/11/08 07:31:15;;;;;;;9.75;8.23;;;5.30;99.90;;;;;;5063094;28;20224;-72
2021/11/08 07:34:02;;;;;;;12.80;8.25;;;5.40;99.90;;;;;;5065220;28;20696;-74
2021/11/08 07:36:49;;;;;;;10.80;9.15;;;5.40;99.90;;;;;;5067304;28;20215;-73
2021/11/08 07:39:35;;;;;;;12.30;9.13;;;5.50;99.90;;;;;;5067188;28;20244;-72
2021/11/08 07:42:21;;;;;;;10.52;9.23;;;5.40;99.90;;;;;;5067627;28;20215;-72
2021/11/08 07:45:07;;;;;;;12.75;8.55;;;5.50;99.90;;;;;;5064938;28;20216;-72
2021/11/08 07:47:52;;;;;;;7.78;6.95;;;5.50;99.90;;;;;;5067012;28;20247;-72
2021/11/08 07:50:40;;;;;;;12.95;7.60;;;5.60;99.90;;;;;;5067356;28;20228;-72
2021/11/08 07:53:25;;;;;;;13.10;8.52;;;5.70;99.90;;;;;;5065223;28;20638;-72
2021/11/08 07:56:12;;;;;;;9.38;8.38;;;5.80;99.90;;;;;;5071497;28;20200;-72
2021/11/08 07:58:57;;;;;;;11.15;7.70;;;6.00;99.90;;;;;;5066029;28;20200;-73
2021/11/08 08:01:43;;;;;;;17.55;9.18;;;6.10;99.90;;;;;;5069507;28;20232;-72
2021/11/08 08:04:29;;;;;;;17.25;11.00;;;6.10;99.90;;;;;;5065148;28;20322;-73
2021/11/08 08:07:16;;;;;;;22.67;14.88;;;6.10;99.90;;;;;;5066546;28;20291;-71
2021/11/08 08:10:02;;;;;;;17.08;15.25;;;6.00;99.90;;;;;;5066295;28;20712;-72
2021/11/08 08:12:48;;;;;;;23.42;14.65;;;6.10;99.90;;;;;;5069165;28;20200;-71
2021/11/08 08:15:34;;;;;;;21.95;14.60;;;6.10;99.90;;;;;;5068177;28;20216;-71
2021/11/08 08:18:20;;;;;;;16.77;13.27;;;6.10;99.90;;;;;;5069989;28;21025;-70
2021/11/08 08:21:07;;;;;;;22.50;13.57;;;6.00;99.90;;;;;;5062145;28;20227;-70
2021/11/08 08:23:57;;;;;;;24.23;13.48;;;6.00;99.90;;;;;;5070234;28;20203;-69
2021/11/08 08:26:44;;;;;;;16.20;12.63;;;6.10;99.90;;;;;;5061093;28;20225;-70
2021/11/08 08:29:30;;;;;;;18.02;12.15;;;6.20;99.90;;;;;;5065405;28;20568;-70
2021/11/08 08:32:16;;;;;;;15.50;11.65;;;6.30;99.90;;;;;;5068342;28;20338;-72
2021/11/08 08:35:01;;;;;;;19.38;11.75;;;6.30;99.90;;;;;;5060303;28;20566;-73
2021/11/08 08:37:47;;;;;;;16.30;12.32;;;6.30;99.90;;;;;;5065222;28;20218;-73
2021/11/08 08:40:34;;;;;;;18.75;11.63;;;6.40;99.90;;;;;;5067558;28;20339;-73
2021/11/08 08:43:21;;;;;;;18.65;11.25;;;6.50;99.90;;;;;;5065287;28;20314;-73
2021/11/08 08:46:07;;;;;;;17.00;14.18;;;6.50;99.90;;;;;;5063624;28;20279;-72
2021/11/08 08:48:53;;;;;;;25.50;14.10;;;6.50;99.90;;;;;;5069942;28;20673;-71
2021/11/08 08:51:39;;;;;;;22.23;14.13;;;6.60;99.90;;;;;;5067773;28;20227;-72
2021/11/08 08:54:25;;;;;;;16.83;12.63;;;6.70;99.90;;;;;;5069082;28;20205;-71
2021/11/08 08:57:12;;;;;;;13.60;11.32;;;6.70;99.90;;;;;;5071744;28;20204;-72
2021/11/08 08:59:58;;;;;;;20.98;12.18;;;6.70;99.90;;;;;;5067179;28;20212;-72
2021/11/08 09:02:44;;;;;;;26.23;12.65;;;6.80;99.90;;;;;;5068570;28;20200;-73
2021/11/08 09:05:29;;;;;;;14.00;12.43;;;6.90;99.90;;;;;;5067536;28;20212;-72
2021/11/08 09:08:15;;;;;;;16.73;10.65;;;7.00;99.90;;;;;;5071167;28;20211;-72
2021/11/08 09:11:01;;;;;;;22.73;12.43;;;7.00;99.90;;;;;;5068681;28;20228;-72
2021/11/08 09:13:49;;;;;;;20.00;13.85;;;6.90;99.90;;;;;;5070733;28;20208;-72
2021/11/08 09:16:35;;;;;;;15.63;11.68;;;6.90;99.90;;;;;;5060352;28;20211;-72
2021/11/08 09:19:21;;;;;;;17.80;11.65;;;7.00;99.90;;;;;;5068075;28;20220;-72
2021/11/08 09:22:08;;;;;;;18.87;13.30;;;7.10;99.90;;;;;;5062256;28;20231;-72
2021/11/08 09:24:55;;;;;;;20.02;13.68;;;7.10;99.90;;;;;;5068081;28;20493;-71
2021/11/08 09:27:41;;;;;;;16.63;13.60;;;7.20;99.90;;;;;;5063459;28;20250;-72
2021/11/08 09:30:32;;;;;;;21.00;13.45;;;7.20;99.90;;;;;;5070776;28;20442;-72
2021/11/08 09:33:18;;;;;;;22.98;13.63;;;7.30;99.90;;;;;;5069600;28;20204;-72
2021/11/08 09:36:06;;;;;;;18.60;12.57;;;7.40;99.90;;;;;;5066051;28;20204;-72
2021/11/08 09:38:55;;;;;;;15.82;12.80;;;7.40;99.90;;;;;;5062877;28;20332;-73
2021/11/08 09:41:41;;;;;;;20.48;11.93;;;7.40;99.90;;;;;;5063825;28;20215;-73
2021/11/08 09:44:27;;;;;;;21.73;13.40;;;7.50;99.90;;;;;;5060605;28;20254;-72
2021/11/08 09:47:15;;;;;;;24.65;13.27;;;7.60;99.90;;;;;;5070505;28;20829;-72
2021/11/08 09:50:03;;;;;;;20.27;11.90;;;7.70;99.90;;;;;;5064585;28;20204;-72
2021/11/08 09:52:50;;;;;;;14.57;11.37;;;7.70;99.90;;;;;;5071698;28;20212;-72
2021/11/08 09:55:36;;;;;;;20.88;11.82;;;7.80;99.90;;;;;;5073557;28;20450;-73
2021/11/08 09:58:22;;;;;;;18.30;11.10;;;7.80;99.90;;;;;;5075587;28;20211;-73
2021/11/08 10:01:12;;;;;;;21.90;10.98;;;7.90;99.90;;;;;;5075132;28;20998;-73
2021/11/08 10:03:59;;;;;;;19.35;10.10;;;7.90;99.90;;;;;;5076234;28;20207;-73
2021/11/08 10:06:46;;;;;;;16.98;11.10;;;8.00;99.90;;;;;;5072518;28;20223;-73
2021/11/08 10:09:32;;;;;;;21.45;10.70;;;8.00;99.90;;;;;;5076337;28;20214;-73
2021/11/08 10:12:18;;;;;;;18.42;11.18;;;8.10;99.90;;;;;;5071844;28;20219;-73
2021/11/08 10:15:04;;;;;;;24.42;11.18;;;8.10;99.90;;;;;;5074958;28;20227;-73
2021/11/08 10:17:50;;;;;;;21.43;11.83;;;8.20;99.90;;;;;;5073120;28;20200;-72
2021/11/08 10:20:39;;;;;;;20.13;11.10;;;8.20;99.90;;;;;;5075282;28;20457;-72
2021/11/08 10:23:26;;;;;;;24.93;12.67;;;8.20;99.90;;;;;;5077631;28;20478;-72
2021/11/08 10:26:15;;;;;;;16.40;12.02;;;8.20;99.90;;;;;;5068770;28;20999;-72
2021/11/08 10:29:03;;;;;;;26.85;13.00;;;8.30;99.90;;;;;;5072496;28;20204;-71
2021/11/08 10:31:52;;;;;;;21.52;13.00;;;8.60;99.90;;;;;;5074624;28;20243;-71
2021/11/08 10:34:47;;;;;;;15.10;9.53;;;9.00;99.90;;;;;;5075066;28;20204;-71
2021/11/08 10:37:34;;;;;;;26.10;10.25;;;9.20;99.90;;;;;;5070784;28;20410;-71
2021/11/08 10:40:21;;;;;;;14.60;9.67;;;9.50;99.90;;;;;;5069736;28;20361;-72
2021/11/08 10:43:06;;;;;;;16.27;10.20;;;9.70;99.90;;;;;;5072050;28;20784;-72
2021/11/08 10:45:54;;;;;;;16.33;9.67;;;9.90;99.90;;;;;;5068106;28;20672;-72
2021/11/08 10:48:42;;;;;;;19.00;10.50;;;10.00;99.90;;;;;;5071257;28;20447;-72
2021/11/08 10:51:30;;;;;;;18.27;9.67;;;10.00;99.90;;;;;;5074560;28;20458;-72
2021/11/08 10:54:22;;;;;;;21.23;9.33;;;10.00;99.90;;;;;;5068838;28;20481;-73
2021/11/08 10:57:11;;;;;;;21.20;9.40;;;10.00;99.90;;;;;;5071705;28;20458;-73
2021/11/08 11:00:00;;;;;;;19.37;9.30;;;10.10;99.90;;;;;;5073483;28;20962;-72
2021/11/08 11:02:45;;;;;;;20.17;8.73;;;10.20;99.90;;;;;;5066588;28;20595;-73
2021/11/08 11:05:41;;;;;;;19.27;9.97;;;10.30;99.90;;;;;;5069833;28;20573;-72
2021/11/08 11:08:28;;;;;;;16.63;8.60;;;10.40;99.90;;;;;;5070810;28;20446;-72
2021/11/08 11:11:15;;;;;;;25.77;10.53;;;10.40;99.90;;;;;;5083924;22;20490;-73
2021/11/08 11:14:01;;;;;;;22.20;8.70;;;10.60;99.90;;;;;;5054449;28;20881;-73
2021/11/08 11:16:50;;;;;;;20.00;10.17;;;10.60;99.90;;;;;;5054279;28;20917;-73
2021/11/08 11:19:37;;;;;;;21.87;8.60;;;10.70;99.90;;;;;;5049683;28;20544;-73
2021/11/08 11:22:24;;;;;;;23.73;8.37;;;10.80;99.90;;;;;;5052436;28;20418;-71
2021/11/08 11:25:11;;;;;;;18.70;8.47;;;10.70;99.90;;;;;;5044080;28;20947;-73
2021/11/08 11:28:00;;;;;;;19.20;8.37;;;10.80;99.90;;;;;;5047995;28;20509;-73
2021/11/08 11:30:46;;;;;;;21.97;8.70;;;10.90;99.90;;;;;;5047511;28;20431;-73
2021/11/08 11:33:32;;;;;;;17.97;7.80;;;11.00;99.90;;;;;;5049060;28;20427;-73
2021/11/08 11:36:20;;;;;;;17.90;7.80;;;11.00;99.90;;;;;;5047695;28;20556;-73
2021/11/08 11:39:08;;;;;;;26.80;8.07;;;11.10;99.90;;;;;;5047807;28;20598;-73
2021/11/08 11:42:00;;;;;;;20.43;7.50;;;11.10;99.90;;;;;;5048825;28;21090;-73
2021/11/08 11:44:52;;;;;;;20.60;7.67;;;11.10;99.90;;;;;;5044424;28;20932;-73
2021/11/08 11:47:39;;;;;;;15.43;6.87;;;10.90;99.90;;;;;;5046227;28;20969;-73
2021/11/08 11:50:25;;;;;;;13.33;6.13;;;10.80;99.90;;;;;;5049337;28;20435;-73
2021/11/08 11:53:11;;;;;;;15.93;7.90;;;10.70;99.90;;;;;;5043250;28;20977;-73
2021/11/08 11:55:57;;;;;;;19.20;6.60;;;10.80;99.90;;;;;;5050821;28;20451;-73
2021/11/08 11:58:44;;;;;;;15.50;5.27;;;11.10;99.90;;;;;;5043391;28;20939;-73
2021/11/08 12:01:34;;;;;;;21.87;7.20;;;11.50;99.90;;;;;;5047489;28;20461;-73
2021/11/08 12:04:21;;;;;;;24.23;9.87;;;11.80;99.90;;;;;;5045960;28;20431;-73
2021/11/08 12:07:09;;;;;;;23.00;7.83;;;12.10;99.90;;;;;;5046212;28;20475;-73
2021/11/08 12:09:55;;;;;;;21.30;6.57;;;12.40;99.90;;;;;;5046876;28;20535;-73
2021/11/08 12:12:40;;;;;;;24.30;6.70;;;12.50;99.90;;;;;;5048939;28;20449;-72
2021/11/08 12:15:27;;;;;;;15.77;7.63;;;12.30;99.90;;;;;;5045325;28;20422;-73
2021/11/08 12:18:16;;;;;;;15.60;7.43;;;12.10;99.90;;;;;;5048273;28;20490;-73
2021/11/08 12:21:02;;;;;;;16.53;7.90;;;11.90;99.90;;;;;;5044612;28;20968;-74
2021/11/08 12:23:48;;;;;;;14.17;7.67;;;11.80;99.90;;;;;;5047279;28;20402;-74
2021/11/08 12:26:34;;;;;;;15.67;6.80;;;11.80;99.90;;;;;;5047525;28;20480;-74
2021/11/08 12:29:22;;;;;;;18.73;7.80;;;12.20;99.90;;;;;;5039976;28;20809;-74
2021/11/08 12:32:09;;;;;;;14.53;7.63;;;12.70;99.90;;;;;;5047022;28;20581;-74
2021/11/08 12:34:58;;;;;;;16.03;7.57;;;13.10;99.90;;;;;;5043046;28;20907;-74
2021/11/08 12:37:44;;;;;;;15.60;6.37;;;13.30;99.90;;;;;;5050261;28;20443;-74
2021/11/08 12:40:32;;;;;;;14.00;6.63;;;13.40;99.90;;;;;;5051704;28;20550;-74
2021/11/08 12:43:24;;;;;;;13.80;6.17;;;13.30;99.90;;;;;;5047557;28;20493;-74
2021/11/08 12:46:16;;;;;;;16.40;6.60;;;13.10;99.90;;;;;;5048835;28;20516;-74
2021/11/08 12:49:08;;;;;;;15.57;5.40;;;12.60;99.90;;;;;;5045820;28;20458;-74
2021/11/08 12:51:58;;;;;;;13.10;4.63;;;12.30;99.90;;;;;;5046600;28;20543;-74
2021/11/08 12:54:48;;;;;;;22.67;5.07;;;12.20;99.90;;;;;;5047115;28;20453;-74
2021/11/08 12:57:36;;;;;;;14.43;4.20;;;11.90;99.90;;;;;;5041644;28;20410;-74
2021/11/08 13:00:26;;;;;;;11.27;3.97;;;11.80;99.90;;;;;;5044761;28;20443;-74
2021/11/08 13:03:14;;;;;;;14.77;5.30;;;11.80;99.90;;;;;;5044972;28;20952;-74
2021/11/08 13:06:00;;;;;;;8.30;4.40;;;11.90;99.90;;;;;;5048459;28;20583;-74
2021/11/08 13:08:48;;;;;;;12.33;4.97;;;11.90;99.90;;;;;;5048241;28;20549;-74
2021/11/08 13:11:45;;;;;;;14.47;4.77;;;12.00;99.90;;;;;;5045572;28;20454;-74
2021/11/08 13:14:34;;;;;;;8.20;3.77;;;11.80;99.90;;;;;;5052945;28;20946;-74
2021/11/08 13:17:22;;;;;;;15.30;4.47;;;11.90;99.90;;;;;;5044956;28;20810;-73
2021/11/08 13:20:09;;;;;;;10.50;4.73;;;12.60;99.90;;;;;;5044419;28;20836;-74
2021/11/08 13:22:57;;;;;;;11.53;4.70;;;13.30;99.90;;;;;;5048933;28;20444;-74
2021/11/08 13:25:48;;;;;;;12.67;4.30;;;13.90;99.90;;;;;;5047714;28;20417;-74
2021/11/08 13:28:37;;;;;;;14.50;4.97;;;14.30;96.80;;;;;;5041861;28;20800;-73
2021/11/08 13:31:22;;;;;;;10.50;4.03;;;14.80;95.50;;;;;;5046138;28;20469;-74
2021/11/08 13:34:08;;;;;;;10.97;4.00;;;14.90;93.40;;;;;;5044268;28;20541;-74
2021/11/08 13:36:54;;;;;;;15.10;3.70;;;14.50;92.80;;;;;;5046500;28;20468;-74
2021/11/08 13:39:39;;;;;;;11.40;3.80;;;13.90;92.30;;;;;;5045648;28;20447;-74
2021/11/08 13:42:26;;;;;;;18.87;5.67;;;13.50;93.80;;;;;;5047469;28;21069;-74
2021/11/08 13:45:12;;;;;;;14.33;5.27;;;12.90;94.70;;;;;;5043791;28;20443;-74
2021/11/08 13:47:58;;;;;;;18.57;4.50;;;12.50;95.10;;;;;;5047279;28;20475;-74
2021/11/08 13:50:44;;;;;;;16.10;3.63;;;12.20;97.90;;;;;;5048541;28;20468;-74
2021/11/08 13:53:31;;;;;;;12.70;4.90;;;12.10;99.90;;;;;;5047507;28;20402;-73
2021/11/08 13:56:16;;;;;;;17.57;4.23;;;12.10;99.90;;;;;;5045627;28;20794;-74
2021/11/08 13:59:06;;;;;;;13.50;4.10;;;12.00;99.90;;;;;;5046079;28;20891;-74
2021/11/08 14:01:56;;;;;;;10.33;3.90;;;11.90;99.90;;;;;;5043780;28;20804;-74
2021/11/08 14:04:45;;;;;;;8.40;4.80;;;11.70;99.90;;;;;;5046466;28;20467;-74
2021/11/08 14:07:33;;;;;;;13.43;4.53;;;11.70;99.90;;;;;;5050191;28;20533;-74
2021/11/08 14:10:18;;;;;;;13.50;4.57;;;11.70;99.90;;;;;;5044218;28;20445;-74
2021/11/08 14:13:11;;;;;;;6.97;2.97;;;11.70;99.90;;;;;;5044989;28;20446;-74
2021/11/08 14:16:06;;;;;;;20.97;5.60;;;11.70;99.90;;;;;;5041613;28;20780;-74
2021/11/08 14:18:54;;;;;;;12.20;3.87;;;11.70;99.90;;;;;;5050440;28;20390;-73
2021/11/08 14:21:41;;;;;;;9.60;2.93;;;11.70;99.90;;;;;;5044298;28;20475;-74
2021/11/08 14:24:27;;;;;;;9.73;3.13;;;11.60;99.90;;;;;;5050714;28;20795;-73
2021/11/08 14:27:14;;;;;;;12.07;3.57;;;11.60;99.90;;;;;;5044597;28;20572;-74
2021/11/08 14:30:11;;;;;;;10.13;2.97;;;11.50;99.90;;;;;;5041707;28;20439;-74
2021/11/08 14:33:00;;;;;;;16.80;4.33;;;11.40;99.90;;;;;;5039954;28;20910;-73
2021/11/08 14:35:46;;;;;;;11.90;4.30;;;11.40;99.90;;;;;;5046948;28;20443;-74
2021/11/08 14:38:45;;;;;;;8.20;3.53;;;11.30;99.90;;;;;;5050452;28;20447;-73
2021/11/08 14:41:33;;;;;;;11.20;3.20;;;11.20;99.90;;;;;;5049858;28;20549;-74
2021/11/08 14:44:19;;;;;;;11.23;3.33;;;11.20;99.90;;;;;;5046881;28;20568;-74
2021/11/08 14:47:17;;;;;;;13.80;3.03;;;11.20;99.90;;;;;;5048901;28;20482;-74
2021/11/08 14:50:07;;;;;;;7.40;2.97;;;11.20;99.90;;;;;;5051729;28;20431;-74
2021/11/08 14:52:53;;;;;;;10.80;3.77;;;11.10;99.90;;;;;;5045386;28;20427;-74
2021/11/08 14:55:38;;;;;;;10.63;2.83;;;11.00;99.90;;;;;;5052393;28;20423;-74
2021/11/08 14:58:24;;;;;;;8.03;2.50;;;11.00;99.90;;;;;;5048909;28;20541;-73
2021/11/08 15:01:20;;;;;;;10.00;3.10;;;10.90;99.90;;;;;;5042537;28;20441;-73
2021/11/08 15:04:09;;;;;;;10.73;2.90;;;10.90;99.90;;;;;;5050704;28;20443;-73
2021/11/08 15:06:58;;;;;;;8.70;2.70;;;10.80;99.90;;;;;;5050465;28;20931;-74
2021/11/08 15:09:49;;;;;;;12.50;3.30;;;10.80;99.90;;;;;;5047797;28;20435;-74
2021/11/08 15:12:37;;;;;;;10.97;3.50;;;10.70;99.90;;;;;;5048842;28;20832;-73
2021/11/08 15:15:28;;;;;;;5.50;2.93;;;10.70;99.90;;;;;;5047454;28;20502;-73
2021/11/08 15:18:16;;;;;;;9.00;2.80;;;10.60;99.90;;;;;;5049237;28;20448;-73
2021/11/08 15:21:04;;;;;;;9.43;2.90;;;10.50;99.90;;;;;;5048777;28;20796;-73
2021/11/08 15:23:51;;;;;;;12.13;3.27;;;10.50;99.90;;;;;;5053568;28;20410;-73
2021/11/08 15:26:38;;;;;;;13.03;3.40;;;10.40;99.90;;;;;;5050308;28;20490;-73
2021/11/08 15:29:26;;;;;;;11.47;3.87;;;10.30;99.90;;;;;;5048039;28;20849;-73
2021/11/08 15:32:15;;;;;;;7.83;3.33;;;10.20;99.90;;;;;;5052460;28;20796;-73
2021/11/08 15:35:09;;;;;;;5.97;2.43;;;10.20;99.90;;;;;;5046664;28;20454;-73
2021/11/08 15:37:55;;;;;;;9.43;4.00;;;10.10;99.90;;;;;;5049351;28;21084;-73
2021/11/08 15:40:43;;;;;;;6.40;3.63;;;10.00;99.90;;;;;;5050403;28;20424;-73
2021/11/08 15:43:29;;;;;;;14.17;3.53;;;9.90;99.90;;;;;;5051480;28;20443;-73
2021/11/08 15:46:15;;;;;;;13.20;3.50;;;9.90;99.90;;;;;;5052283;28;20578;-73
2021/11/08 15:49:02;;;;;;;7.77;3.70;;;9.80;99.90;;;;;;5045713;28;20483;-73
2021/11/08 15:51:48;;;;;;;10.77;3.40;;;9.80;99.90;;;;;;5048490;28;20825;-73